createdAt,value
2023-08-16T00:01:31.445Z,10.75
2023-08-16T00:03:59.019Z,11.20
2023-08-16T00:06:26.159Z,12.48
2023-08-16T00:09:00.887Z,12.98
2023-08-16T00:11:28.098Z,11.35
2023-08-16T00:13:55.182Z,13.95
2023-08-16T00:16:22.212Z,12.10
2023-08-16T00:18:49.404Z,12.35
2023-08-16T00:21:16.271Z,12.13
2023-08-16T00:23:43.386Z,11.82
2023-08-16T00:26:10.292Z,15.93
2023-08-16T00:28:37.303Z,12.15
2023-08-16T00:31:04.221Z,12.50
2023-08-16T00:33:31.334Z,17.50
2023-08-16T00:35:58.181Z,14.38
2023-08-16T00:38:25.527Z,14.23
2023-08-16T00:40:52.616Z,12.90
2023-08-16T00:43:20.076Z,12.07
2023-08-16T00:45:49.256Z,14.52
2023-08-16T00:48:17.868Z,11.05
2023-08-16T00:50:46.037Z,11.57
2023-08-16T00:53:14.959Z,12.20
2023-08-16T00:55:41.830Z,12.32
2023-08-16T00:58:09.081Z,12.73
2023-08-16T01:00:36.068Z,12.20
2023-08-16T01:03:02.926Z,13.02
2023-08-16T01:05:30.581Z,13.18
2023-08-16T01:07:57.888Z,10.82
2023-08-16T01:10:33.868Z,13.07
2023-08-16T01:13:10.307Z,13.18
2023-08-16T01:15:42.037Z,13.57
2023-08-16T01:18:10.874Z,12.13
2023-08-16T01:20:38.567Z,14.13
2023-08-16T01:23:08.018Z,11.77
2023-08-16T01:26:07.972Z,12.70
2023-08-16T01:28:38.838Z,11.00
2023-08-16T01:31:06.514Z,12.32
2023-08-16T01:33:33.364Z,14.60
2023-08-16T01:36:00.432Z,11.88
2023-08-16T01:38:27.681Z,12.27
2023-08-16T01:41:00.702Z,14.55
2023-08-16T01:43:28.980Z,12.07
2023-08-16T01:45:57.101Z,14.15
2023-08-16T01:48:25.019Z,12.23
2023-08-16T01:50:52.788Z,14.30
2023-08-16T01:53:20.381Z,14.10
2023-08-16T01:55:48.239Z,12.60
2023-08-16T01:58:15.168Z,12.82
2023-08-16T02:00:42.647Z,13.27
2023-08-16T02:03:09.626Z,12.43
2023-08-16T02:05:37.020Z,13.63
2023-08-16T02:08:04.139Z,12.93
2023-08-16T02:10:31.352Z,13.90
2023-08-16T02:12:58.146Z,13.30
2023-08-16T02:15:26.594Z,12.88
2023-08-16T02:17:53.637Z,12.27
2023-08-16T02:20:21.249Z,12.35
2023-08-16T02:22:48.197Z,13.63
2023-08-16T02:25:15.543Z,13.82
2023-08-16T02:27:42.389Z,12.82
2023-08-16T02:30:10.894Z,11.63
2023-08-16T02:32:38.126Z,11.57
2023-08-16T02:35:05.476Z,16.40
2023-08-16T02:37:32.242Z,11.55
2023-08-16T02:39:59.394Z,13.93
2023-08-16T02:42:26.234Z,13.38
2023-08-16T02:44:53.376Z,15.60
2023-08-16T02:47:20.174Z,13.90
2023-08-16T02:49:47.604Z,12.38
2023-08-16T02:52:14.551Z,13.30
2023-08-16T02:54:42.682Z,13.23
2023-08-16T02:57:09.499Z,12.30
2023-08-16T02:59:47.291Z,12.82
2023-08-16T03:02:15.273Z,12.55
2023-08-16T03:04:42.360Z,12.25
2023-08-16T03:07:10.502Z,14.50
2023-08-16T03:09:39.107Z,12.07
2023-08-16T03:12:06.919Z,13.93
2023-08-16T03:14:34.293Z,11.55
2023-08-16T03:17:01.429Z,11.90
2023-08-16T03:19:28.526Z,12.68
2023-08-16T03:21:57.633Z,13.02
2023-08-16T03:24:24.997Z,12.40
2023-08-16T03:26:52.197Z,12.55
2023-08-16T03:29:19.766Z,13.77
2023-08-16T03:31:47.653Z,14.00
2023-08-16T03:34:15.284Z,14.20
2023-08-16T03:36:42.303Z,12.45
2023-08-16T03:39:09.590Z,12.80
2023-08-16T03:41:38.413Z,11.68
2023-08-16T03:44:07.652Z,12.32
2023-08-16T03:46:37.706Z,11.65
2023-08-16T03:49:04.949Z,13.65
2023-08-16T03:51:32.786Z,14.38
2023-08-16T03:53:59.979Z,12.43
2023-08-16T03:56:26.912Z,12.23
2023-08-16T03:58:54.109Z,12.30
2023-08-16T04:01:21.083Z,14.07
2023-08-16T04:03:48.628Z,12.50
2023-08-16T04:06:16.837Z,11.27
2023-08-16T04:08:43.984Z,11.50
2023-08-16T04:11:10.850Z,11.95
2023-08-16T04:13:38.718Z,11.40
2023-08-16T04:16:05.827Z,12.07
2023-08-16T04:18:33.405Z,13.07
2023-08-16T04:21:01.656Z,15.20
2023-08-16T04:23:29.306Z,12.75
2023-08-16T04:25:56.458Z,12.77
2023-08-16T04:28:23.806Z,15.55
2023-08-16T04:30:50.721Z,14.57
2023-08-16T04:33:17.966Z,12.73
2023-08-16T04:35:44.984Z,14.35
2023-08-16T04:38:12.320Z,12.02
2023-08-16T04:40:39.123Z,12.95
2023-08-16T04:43:06.282Z,11.95
2023-08-16T04:45:33.358Z,14.82
2023-08-16T04:48:00.920Z,13.43
2023-08-16T04:50:28.062Z,14.88
2023-08-16T04:52:55.227Z,18.77
2023-08-16T04:55:22.234Z,18.42
2023-08-16T04:57:49.726Z,18.50
2023-08-16T05:00:17.052Z,15.40
2023-08-16T05:02:46.519Z,15.50
2023-08-16T05:05:13.834Z,14.00
2023-08-16T05:07:41.081Z,15.77
2023-08-16T05:10:08.265Z,14.13
2023-08-16T05:12:35.316Z,17.13
2023-08-16T05:15:02.070Z,16.00
2023-08-16T05:17:29.104Z,19.65
2023-08-16T05:19:55.964Z,15.15
2023-08-16T05:22:26.083Z,17.52
2023-08-16T05:24:53.015Z,16.02
2023-08-16T05:27:20.269Z,15.75
2023-08-16T05:29:48.211Z,16.55
2023-08-16T05:32:15.513Z,15.05
2023-08-16T05:34:42.570Z,17.23
2023-08-16T05:37:10.732Z,16.00
2023-08-16T05:39:37.626Z,15.60
2023-08-16T05:42:05.008Z,15.88
2023-08-16T05:44:31.925Z,15.82
2023-08-16T05:46:59.103Z,17.42
2023-08-16T05:49:25.956Z,16.92
2023-08-16T05:51:53.007Z,14.80
2023-08-16T05:54:19.912Z,16.42
2023-08-16T05:56:47.225Z,18.55
2023-08-16T05:59:14.315Z,17.73
2023-08-16T06:01:41.680Z,18.20
2023-08-16T06:04:08.497Z,17.63
2023-08-16T06:06:35.759Z,17.80
2023-08-16T06:09:02.556Z,17.95
2023-08-16T06:11:29.770Z,17.17
2023-08-16T06:13:56.576Z,19.80
2023-08-16T06:16:24.085Z,18.75
2023-08-16T06:18:53.825Z,17.58
2023-08-16T06:21:21.076Z,16.70
2023-08-16T06:23:49.160Z,18.23
2023-08-16T06:26:16.376Z,15.77
2023-08-16T06:28:43.381Z,16.50
2023-08-16T06:31:10.554Z,19.52
2023-08-16T06:33:38.402Z,17.00
2023-08-16T06:36:05.995Z,18.80
2023-08-16T06:38:35.322Z,17.98
2023-08-16T06:41:03.469Z,23.48
2023-08-16T06:43:30.338Z,15.95
2023-08-16T06:46:07.755Z,17.30
2023-08-16T06:48:41.440Z,15.45
2023-08-16T06:53:52.077Z,15.50
2023-08-16T06:56:19.423Z,16.10
2023-08-16T06:58:46.463Z,17.00
2023-08-16T07:01:13.691Z,15.15
2023-08-16T07:03:40.841Z,13.40
2023-08-16T07:06:08.131Z,14.65
2023-08-16T07:08:34.979Z,14.02
2023-08-16T07:11:02.156Z,12.30
2023-08-16T07:13:28.994Z,16.33
2023-08-16T07:15:56.154Z,13.80
2023-08-16T07:18:24.909Z,17.35
2023-08-16T07:20:52.453Z,15.15
2023-08-16T07:23:19.193Z,18.02
2023-08-16T07:25:46.414Z,14.82
2023-08-16T07:28:13.331Z,13.45
2023-08-16T07:30:40.550Z,13.25
2023-08-16T07:33:07.519Z,10.27
2023-08-16T07:35:34.709Z,12.35
2023-08-16T07:38:03.942Z,11.75
2023-08-16T07:40:31.543Z,12.27
2023-08-16T07:42:58.389Z,11.63
2023-08-16T07:45:25.602Z,13.27
2023-08-16T07:47:52.875Z,11.10
2023-08-16T07:50:20.612Z,11.63
2023-08-16T07:52:47.612Z,13.18
2023-08-16T07:55:14.831Z,10.68
2023-08-16T07:57:41.721Z,12.15
2023-08-16T08:00:13.285Z,13.55
2023-08-16T08:02:55.390Z,12.02
2023-08-16T08:05:25.383Z,11.43
2023-08-16T08:07:55.259Z,12.90
2023-08-16T08:10:22.563Z,9.68
2023-08-16T08:12:49.419Z,9.20
2023-08-16T08:15:16.704Z,8.40
2023-08-16T08:17:43.631Z,11.15
2023-08-16T08:20:12.148Z,10.63
2023-08-16T08:22:39.177Z,10.77
2023-08-16T08:25:07.122Z,11.80
2023-08-16T08:27:34.002Z,10.15
2023-08-16T08:30:02.682Z,8.80
2023-08-16T08:32:29.858Z,8.85
2023-08-16T08:34:57.235Z,12.07
2023-08-16T08:37:24.148Z,11.00
2023-08-16T08:39:51.257Z,9.85
2023-08-16T08:42:18.287Z,11.75
2023-08-16T08:44:46.081Z,11.25
2023-08-16T08:47:17.270Z,12.50
2023-08-16T08:49:45.852Z,14.02
2023-08-16T08:52:14.393Z,9.90
2023-08-16T08:54:41.665Z,9.63
2023-08-16T08:57:09.718Z,10.57
2023-08-16T08:59:40.384Z,10.35
2023-08-16T09:02:08.576Z,10.77
2023-08-16T09:04:36.166Z,13.75
2023-08-16T09:07:08.529Z,10.85
2023-08-16T09:09:36.310Z,11.73
2023-08-16T09:12:03.277Z,9.38
2023-08-16T09:14:31.681Z,9.13
2023-08-16T09:16:58.881Z,9.27
2023-08-16T09:19:26.134Z,10.05
2023-08-16T09:21:53.331Z,11.57
2023-08-16T09:24:29.739Z,10.50
2023-08-16T09:27:01.557Z,12.10
2023-08-16T09:29:32.061Z,10.98
2023-08-16T09:31:59.044Z,10.38
2023-08-16T09:37:04.401Z,11.32
2023-08-16T09:39:31.854Z,8.60
2023-08-16T09:41:58.789Z,10.30
2023-08-16T09:44:30.667Z,12.45
2023-08-16T09:52:14.644Z,8.27
2023-08-16T09:54:41.929Z,9.45
2023-08-16T09:59:57.251Z,9.38
2023-08-16T10:05:05.079Z,11.55
2023-08-16T10:07:33.032Z,10.63
2023-08-16T10:10:01.068Z,10.52
2023-08-16T10:12:28.942Z,9.40
2023-08-16T10:14:56.190Z,9.40
2023-08-16T10:17:23.452Z,9.30
2023-08-16T10:19:57.969Z,10.18
2023-08-16T10:22:35.591Z,10.68
2023-08-16T10:25:08.362Z,9.70
2023-08-16T10:27:41.234Z,9.82
2023-08-16T10:30:13.730Z,9.90
2023-08-16T10:32:43.543Z,9.70
2023-08-16T10:35:11.694Z,12.82
2023-08-16T10:37:40.362Z,10.50
2023-08-16T10:43:05.836Z,11.43
2023-08-16T10:48:19.376Z,13.82
2023-08-16T10:50:56.055Z,11.48
2023-08-16T10:56:02.406Z,9.68
2023-08-16T10:58:29.888Z,12.05
2023-08-16T11:01:01.379Z,8.95
2023-08-16T11:03:47.404Z,9.93
2023-08-16T11:06:16.036Z,24.95
2023-08-16T11:08:44.882Z,10.85
2023-08-16T11:11:15.306Z,9.25
2023-08-16T11:13:43.043Z,11.60
2023-08-16T11:16:12.292Z,14.07
2023-08-16T11:18:43.404Z,9.35
2023-08-16T11:21:18.137Z,9.40
2023-08-16T11:23:45.261Z,10.02
2023-08-16T11:26:13.153Z,9.85
2023-08-16T11:28:41.871Z,10.98
2023-08-16T11:31:10.361Z,10.73
2023-08-16T11:33:41.111Z,9.05
2023-08-16T11:36:10.141Z,8.90
2023-08-16T11:38:37.285Z,8.90
2023-08-16T11:41:04.752Z,9.38
2023-08-16T11:43:36.963Z,9.63
2023-08-16T11:46:05.717Z,16.08
2023-08-16T11:48:36.243Z,10.07
2023-08-16T11:51:04.083Z,11.93
2023-08-16T11:53:36.157Z,8.98
2023-08-16T11:56:11.090Z,9.85
2023-08-16T11:58:45.717Z,8.73
2023-08-16T12:01:16.619Z,8.40
2023-08-16T12:03:44.901Z,9.88
2023-08-16T12:06:12.642Z,8.80
2023-08-16T12:08:53.327Z,9.43
2023-08-16T12:11:32.458Z,11.73
2023-08-16T12:14:00.343Z,9.00
2023-08-16T12:16:27.930Z,8.77
2023-08-16T12:18:57.656Z,9.85
2023-08-16T12:21:35.562Z,8.93
2023-08-16T12:24:02.986Z,7.93
2023-08-16T12:26:30.235Z,10.70
2023-08-16T12:28:57.913Z,9.07
2023-08-16T12:31:25.096Z,8.60
2023-08-16T12:33:52.131Z,9.02
2023-08-16T12:36:19.631Z,8.88
2023-08-16T12:38:46.620Z,11.50
2023-08-16T12:41:13.850Z,10.68
2023-08-16T12:43:43.096Z,11.93
2023-08-16T12:46:11.285Z,9.40
2023-08-16T12:48:38.682Z,9.68
2023-08-16T12:51:16.107Z,8.63
2023-08-16T12:53:45.402Z,9.35
2023-08-16T12:56:14.014Z,9.45
2023-08-16T13:01:19.023Z,12.32
2023-08-16T13:06:30.682Z,9.63
2023-08-16T13:11:34.014Z,8.80
2023-08-16T13:14:07.185Z,9.95
2023-08-16T13:16:44.642Z,9.90
2023-08-16T13:19:24.825Z,10.38
2023-08-16T13:22:15.598Z,8.93
2023-08-16T13:24:57.987Z,11.20
2023-08-16T13:27:40.938Z,10.48
2023-08-16T13:30:46.552Z,9.32
2023-08-16T13:33:09.375Z,10.63
2023-08-16T13:38:17.437Z,9.75
2023-08-16T13:46:18.930Z,8.85
2023-08-16T13:48:48.928Z,9.95
2023-08-16T13:51:16.077Z,16.23
2023-08-16T13:53:43.618Z,10.68
2023-08-16T13:56:10.771Z,12.77
2023-08-16T13:58:37.873Z,9.73
2023-08-16T14:01:04.725Z,10.65
2023-08-16T14:03:31.861Z,9.50
2023-08-16T14:06:02.984Z,9.27
2023-08-16T14:08:30.576Z,13.10
2023-08-16T14:11:02.233Z,11.35
2023-08-16T14:13:31.137Z,9.88
2023-08-16T14:16:02.566Z,10.65
2023-08-16T14:18:30.003Z,9.95
2023-08-16T14:20:56.944Z,10.70
2023-08-16T14:23:24.172Z,10.60
2023-08-16T14:25:52.745Z,8.98
2023-08-16T14:28:24.561Z,9.98
2023-08-16T14:30:52.126Z,11.23
2023-08-16T14:33:31.555Z,13.15
2023-08-16T14:35:58.480Z,10.43
2023-08-16T14:38:25.641Z,9.93
2023-08-16T14:40:52.422Z,11.68
2023-08-16T14:43:19.638Z,9.70
2023-08-16T14:45:46.517Z,9.75
2023-08-16T14:48:13.808Z,10.10
2023-08-16T14:50:40.694Z,9.50
2023-08-16T14:53:07.801Z,10.40
2023-08-16T14:55:34.753Z,12.60
2023-08-16T14:58:04.333Z,10.55
2023-08-16T15:00:32.441Z,10.80
2023-08-16T15:03:01.059Z,11.93
2023-08-16T15:05:30.944Z,9.90
2023-08-16T15:08:00.477Z,10.80
2023-08-16T15:10:27.270Z,12.20
2023-08-16T15:12:57.865Z,11.07
2023-08-16T15:15:24.984Z,10.32
2023-08-16T15:17:52.070Z,10.35
2023-08-16T15:20:19.287Z,10.98
2023-08-16T15:22:46.457Z,11.88
2023-08-16T15:25:13.672Z,11.45
2023-08-16T15:27:40.821Z,12.27
2023-08-16T15:30:09.273Z,9.63
2023-08-16T15:32:36.734Z,9.77
2023-08-16T15:35:04.953Z,13.10
2023-08-16T15:37:35.314Z,10.32
2023-08-16T15:40:02.223Z,12.40
2023-08-16T15:42:29.594Z,15.48
2023-08-16T15:44:56.484Z,11.93
2023-08-16T15:47:23.862Z,10.70
2023-08-16T15:49:51.007Z,11.15
2023-08-16T15:52:18.097Z,11.05
2023-08-16T15:54:44.928Z,10.32
2023-08-16T15:57:11.994Z,12.32
2023-08-16T15:59:47.869Z,12.20
2023-08-16T16:02:16.563Z,12.43
2023-08-16T16:04:44.595Z,12.18
2023-08-16T16:07:11.736Z,11.38
2023-08-16T16:09:38.733Z,11.32
2023-08-16T16:12:05.974Z,10.48
2023-08-16T16:14:32.856Z,10.95
2023-08-16T16:17:29.251Z,12.25
2023-08-16T16:19:56.691Z,13.75
2023-08-16T16:22:24.148Z,12.52
2023-08-16T16:24:51.142Z,11.88
2023-08-16T16:27:18.342Z,13.10
2023-08-16T16:29:45.262Z,32.47
2023-08-16T16:32:12.427Z,134.30
2023-08-16T16:34:39.885Z,68.53
2023-08-16T16:37:07.182Z,112.22
2023-08-16T16:39:34.251Z,71.90
2023-08-16T16:42:02.748Z,48.03
2023-08-16T16:44:29.941Z,192.25
2023-08-16T16:46:57.149Z,108.15
2023-08-16T16:49:24.486Z,69.72
2023-08-16T16:51:52.868Z,35.88
2023-08-16T16:54:19.698Z,31.65
2023-08-16T16:56:46.903Z,17.45
2023-08-16T16:59:13.732Z,23.15
2023-08-16T17:01:41.123Z,22.05
2023-08-16T17:04:08.035Z,86.05
2023-08-16T17:06:35.233Z,36.35
2023-08-16T17:09:03.238Z,64.32
2023-08-16T17:11:30.431Z,16.92
2023-08-16T17:13:58.077Z,22.67
2023-08-16T17:16:25.256Z,15.50
2023-08-16T17:18:52.272Z,39.33
2023-08-16T17:21:19.333Z,37.83
2023-08-16T17:23:46.939Z,34.78
2023-08-16T17:26:15.032Z,39.10
2023-08-16T17:28:42.339Z,85.75
2023-08-16T17:31:12.224Z,46.45
2023-08-16T17:33:40.601Z,16.80
2023-08-16T17:36:30.002Z,19.25
2023-08-16T17:38:57.063Z,17.50
2023-08-16T17:41:25.013Z,15.40
2023-08-16T17:43:53.188Z,14.15
2023-08-16T17:46:40.400Z,15.88
2023-08-16T17:49:07.523Z,19.23
2023-08-16T17:51:34.923Z,16.50
2023-08-16T17:54:01.933Z,14.00
2023-08-16T17:56:29.067Z,16.02
2023-08-16T17:58:56.006Z,18.38
2023-08-16T18:01:23.336Z,13.73
2023-08-16T18:03:50.478Z,19.38
2023-08-16T18:06:17.633Z,17.38
2023-08-16T18:08:46.088Z,15.25
2023-08-16T18:11:13.733Z,14.25
2023-08-16T18:13:42.213Z,14.43
2023-08-16T18:16:09.568Z,13.40
2023-08-16T18:18:45.479Z,16.05
2023-08-16T18:21:12.732Z,13.85
2023-08-16T18:23:39.819Z,18.08
2023-08-16T18:26:08.335Z,16.83
2023-08-16T18:28:35.176Z,11.35
2023-08-16T18:31:02.836Z,11.60
2023-08-16T18:33:29.797Z,16.02
2023-08-16T18:35:57.013Z,13.30
2023-08-16T18:38:23.908Z,11.55
2023-08-16T18:40:51.167Z,15.02
2023-08-16T18:43:19.391Z,12.45
2023-08-16T18:45:48.087Z,12.48
2023-08-16T18:48:15.931Z,13.95
2023-08-16T18:50:43.074Z,13.38
2023-08-16T18:53:09.906Z,11.20
2023-08-16T18:55:41.814Z,14.63
2023-08-16T18:58:08.807Z,15.00
2023-08-16T19:00:36.125Z,12.00
2023-08-16T19:03:03.268Z,13.25
2023-08-16T19:05:30.723Z,15.27
2023-08-16T19:07:57.640Z,16.42
2023-08-16T19:10:25.259Z,15.57
2023-08-16T19:12:52.158Z,15.45
2023-08-16T19:15:19.299Z,15.35
2023-08-16T19:17:46.160Z,17.08
2023-08-16T19:20:13.377Z,19.20
2023-08-16T19:22:40.335Z,15.43
2023-08-16T19:25:08.033Z,16.15
2023-08-16T19:27:34.853Z,17.95
2023-08-16T19:30:04.595Z,13.88
2023-08-16T19:32:31.585Z,14.15
2023-08-16T19:34:58.757Z,14.35
2023-08-16T19:37:25.801Z,16.55
2023-08-16T19:39:53.371Z,15.82
2023-08-16T19:42:20.326Z,15.70
2023-08-16T19:44:47.553Z,12.40
2023-08-16T19:47:14.470Z,14.43
2023-08-16T19:49:46.128Z,17.65
2023-08-16T19:52:13.093Z,13.52
2023-08-16T19:54:40.463Z,14.27
2023-08-16T19:57:07.250Z,12.40
2023-08-16T19:59:34.519Z,14.15
2023-08-16T20:02:01.872Z,16.00
2023-08-16T20:04:29.043Z,13.20
2023-08-16T20:06:57.097Z,17.02
2023-08-16T20:09:24.406Z,15.50
2023-08-16T20:11:51.357Z,17.13
2023-08-16T20:14:18.552Z,14.85
2023-08-16T20:16:45.566Z,17.13
2023-08-16T20:19:13.036Z,17.50
2023-08-16T20:21:39.934Z,14.63
2023-08-16T20:24:09.380Z,17.13
2023-08-16T20:26:36.329Z,12.88
2023-08-16T20:29:03.492Z,14.32
2023-08-16T20:31:32.007Z,13.55
2023-08-16T20:33:59.259Z,15.02
2023-08-16T20:36:26.125Z,14.90
2023-08-16T20:38:53.245Z,17.27
2023-08-16T20:41:20.057Z,15.48
2023-08-16T20:43:49.580Z,13.55
2023-08-16T20:46:18.543Z,14.95
2023-08-16T20:48:46.324Z,13.80
2023-08-16T20:51:13.102Z,14.38
2023-08-16T20:53:44.243Z,14.32
2023-08-16T20:56:11.040Z,15.98
2023-08-16T20:58:38.197Z,14.20
2023-08-16T21:01:05.150Z,14.10
2023-08-16T21:03:32.277Z,13.45
2023-08-16T21:05:59.253Z,15.68
2023-08-16T21:08:26.464Z,13.55
2023-08-16T21:10:53.230Z,14.48
2023-08-16T21:13:21.589Z,15.50
2023-08-16T21:15:48.458Z,13.32
2023-08-16T21:18:15.662Z,19.00
2023-08-16T21:20:42.664Z,14.30
2023-08-16T21:23:09.760Z,13.48
2023-08-16T21:25:36.791Z,14.02
2023-08-16T21:28:04.323Z,17.95
2023-08-16T21:30:31.363Z,17.13
2023-08-16T21:32:58.678Z,18.42
2023-08-16T21:35:26.178Z,16.35
2023-08-16T21:37:53.588Z,14.30
2023-08-16T21:40:20.359Z,16.05
2023-08-16T21:42:47.557Z,19.75
2023-08-16T21:45:14.569Z,16.75
2023-08-16T21:47:41.714Z,15.82
2023-08-16T21:50:09.247Z,17.40
2023-08-16T21:52:36.608Z,13.35
2023-08-16T21:55:03.814Z,15.95
2023-08-16T21:57:31.177Z,15.55
2023-08-16T21:59:58.355Z,15.50
2023-08-16T22:02:25.608Z,18.27
2023-08-16T22:04:52.560Z,18.75
2023-08-16T22:07:19.697Z,24.73
2023-08-16T22:09:46.636Z,15.55
2023-08-16T22:12:13.985Z,14.52
2023-08-16T22:14:41.064Z,14.98
2023-08-16T22:17:08.453Z,17.45
2023-08-16T22:19:35.790Z,17.92
2023-08-16T22:22:06.871Z,14.27
2023-08-16T22:24:33.778Z,15.65
2023-08-16T22:27:03.437Z,17.35
2023-08-16T22:29:30.483Z,16.38
2023-08-16T22:31:57.956Z,16.70
2023-08-16T22:34:24.825Z,16.73
2023-08-16T22:37:14.968Z,13.60
2023-08-16T22:39:41.973Z,14.70
2023-08-16T22:42:09.126Z,13.07
2023-08-16T22:44:36.510Z,17.70
2023-08-16T22:47:03.834Z,14.65
2023-08-16T22:49:30.777Z,13.48
2023-08-16T22:51:58.349Z,15.40
2023-08-16T22:54:25.281Z,15.57
2023-08-16T22:56:52.903Z,14.35
2023-08-16T22:59:22.180Z,19.35
2023-08-16T23:01:49.547Z,12.77
2023-08-16T23:04:31.425Z,13.75
2023-08-16T23:06:58.560Z,15.15
2023-08-16T23:09:25.797Z,16.48
2023-08-16T23:11:53.075Z,15.23
2023-08-16T23:14:19.992Z,14.75
2023-08-16T23:16:47.126Z,14.38
2023-08-16T23:19:14.181Z,15.05
2023-08-16T23:21:41.620Z,17.58
2023-08-16T23:24:08.984Z,15.35
2023-08-16T23:26:36.207Z,14.88
2023-08-16T23:29:03.469Z,16.85
2023-08-16T23:31:30.535Z,14.75
2023-08-16T23:33:57.496Z,16.85
2023-08-16T23:36:24.680Z,12.75
2023-08-16T23:38:51.517Z,14.32
2023-08-16T23:41:18.684Z,16.02
2023-08-16T23:43:45.857Z,15.35
2023-08-16T23:46:12.947Z,14.95
2023-08-16T23:48:41.795Z,16.92
2023-08-16T23:51:08.936Z,14.80
2023-08-16T23:53:35.877Z,14.90
2023-08-16T23:56:03.152Z,15.68
2023-08-16T23:58:30.581Z,13.60
